createdAt,value
2022-11-29T00:00:08.628Z,10.80
2022-11-29T00:01:08.610Z,10.50
2022-11-29T00:02:08.699Z,11.80
2022-11-29T00:03:08.655Z,10.40
2022-11-29T00:04:08.700Z,10.50
2022-11-29T00:05:08.629Z,10.70
2022-11-29T00:06:08.634Z,11.00
2022-11-29T00:07:08.611Z,11.20
2022-11-29T00:08:08.612Z,11.50
2022-11-29T00:09:08.530Z,11.30
2022-11-29T00:10:08.653Z,10.90
2022-11-29T00:11:08.489Z,12.20
2022-11-29T00:12:08.480Z,11.50
2022-11-29T00:13:08.479Z,11.90
2022-11-29T00:14:08.848Z,11.50
2022-11-29T00:15:08.459Z,10.60
2022-11-29T00:16:08.489Z,11.30
2022-11-29T00:17:08.513Z,11.10
2022-11-29T00:18:08.507Z,10.50
2022-11-29T00:19:10.778Z,10.70
2022-11-29T00:20:10.581Z,11.30
2022-11-29T00:21:08.422Z,11.10
2022-11-29T00:22:09.737Z,11.30
2022-11-29T00:23:08.385Z,11.00
2022-11-29T00:24:08.370Z,10.70
2022-11-29T00:25:08.550Z,11.40
2022-11-29T00:26:08.379Z,11.20
2022-11-29T00:27:08.316Z,12.20
2022-11-29T00:28:08.505Z,11.40
2022-11-29T00:29:08.336Z,11.90
2022-11-29T00:30:17.003Z,10.90
2022-11-29T00:31:09.304Z,11.70
2022-11-29T00:32:08.282Z,10.70
2022-11-29T00:33:08.284Z,12.40
2022-11-29T00:34:09.985Z,11.20
2022-11-29T00:35:09.941Z,10.70
2022-11-29T00:36:08.278Z,11.60
2022-11-29T00:37:09.475Z,11.60
2022-11-29T00:38:08.326Z,11.80
2022-11-29T00:39:09.140Z,11.60
2022-11-29T00:40:08.913Z,11.90
2022-11-29T00:41:08.165Z,11.30
2022-11-29T00:42:08.168Z,11.40
2022-11-29T00:43:29.205Z,10.90
2022-11-29T00:44:08.393Z,12.20
2022-11-29T00:45:08.377Z,10.80
2022-11-29T00:46:08.143Z,11.80
2022-11-29T00:47:08.834Z,11.30
2022-11-29T00:48:11.857Z,10.90
2022-11-29T00:49:08.948Z,11.60
2022-11-29T00:50:11.794Z,11.70
2022-11-29T00:51:09.501Z,11.80
2022-11-29T00:52:30.998Z,11.60
2022-11-29T00:53:08.006Z,11.60
2022-11-29T00:54:07.994Z,11.40
2022-11-29T00:55:08.035Z,11.60
2022-11-29T00:56:08.000Z,12.30
2022-11-29T00:57:07.966Z,11.40
2022-11-29T00:58:07.989Z,11.70
2022-11-29T00:59:07.987Z,11.90
2022-11-29T01:00:07.962Z,11.60
2022-11-29T01:01:07.941Z,11.80
2022-11-29T01:02:07.944Z,11.40
2022-11-29T01:03:07.905Z,11.00
2022-11-29T01:04:07.877Z,11.80
2022-11-29T01:05:07.868Z,11.90
2022-11-29T01:06:07.897Z,12.10
2022-11-29T01:07:07.847Z,11.70
2022-11-29T01:08:07.826Z,12.10
2022-11-29T01:09:07.865Z,11.20
2022-11-29T01:10:07.837Z,11.10
2022-11-29T01:11:07.797Z,11.60
2022-11-29T01:12:07.844Z,11.40
2022-11-29T01:13:07.820Z,11.50
2022-11-29T01:14:08.142Z,11.40
2022-11-29T01:15:07.772Z,11.50
2022-11-29T01:16:07.778Z,11.40
2022-11-29T01:17:07.803Z,11.50
2022-11-29T01:18:07.748Z,11.80
2022-11-29T01:19:07.783Z,11.80
2022-11-29T01:20:07.768Z,11.40
2022-11-29T01:21:07.720Z,11.70
2022-11-29T01:22:07.689Z,11.70
2022-11-29T01:23:07.711Z,11.60
2022-11-29T01:24:07.756Z,11.50
2022-11-29T01:25:07.650Z,11.70
2022-11-29T01:26:07.685Z,11.40
2022-11-29T01:27:07.618Z,11.90
2022-11-29T01:28:07.616Z,11.80
2022-11-29T01:29:07.660Z,11.70
2022-11-29T01:30:07.663Z,11.10
2022-11-29T01:31:07.650Z,11.10
2022-11-29T01:32:07.561Z,10.90
2022-11-29T01:33:07.550Z,11.10
2022-11-29T01:34:07.548Z,11.80
2022-11-29T01:35:07.550Z,11.00
2022-11-29T01:36:07.597Z,11.70
2022-11-29T01:37:07.507Z,12.20
2022-11-29T01:38:07.490Z,11.10
2022-11-29T01:39:07.482Z,11.50
2022-11-29T01:40:07.490Z,12.50
2022-11-29T01:41:07.699Z,11.30
2022-11-29T01:42:07.489Z,11.60
2022-11-29T01:43:07.451Z,11.40
2022-11-29T01:44:07.820Z,11.30
2022-11-29T01:45:07.500Z,11.70
2022-11-29T01:46:07.517Z,11.50
2022-11-29T01:47:07.451Z,11.60
2022-11-29T01:48:07.381Z,11.20
2022-11-29T01:49:07.362Z,11.10
2022-11-29T01:50:07.562Z,11.60
2022-11-29T01:51:07.363Z,11.10
2022-11-29T01:52:07.397Z,12.50
2022-11-29T01:53:07.583Z,11.20
2022-11-29T01:54:07.370Z,11.50
2022-11-29T01:55:07.471Z,12.30
2022-11-29T01:56:07.425Z,11.50
2022-11-29T01:57:07.302Z,12.40
2022-11-29T01:58:07.304Z,11.80
2022-11-29T01:59:07.288Z,12.20
2022-11-29T02:00:07.243Z,11.80
2022-11-29T02:01:07.332Z,11.70
2022-11-29T02:02:07.262Z,11.90
2022-11-29T02:03:07.311Z,11.30
2022-11-29T02:04:07.317Z,10.70
2022-11-29T02:05:07.194Z,11.90
2022-11-29T02:06:07.185Z,12.40
2022-11-29T02:07:07.220Z,11.40
2022-11-29T02:08:07.161Z,11.10
2022-11-29T02:09:07.144Z,11.80
2022-11-29T02:10:07.155Z,11.70
2022-11-29T02:11:07.135Z,11.40
2022-11-29T02:12:07.115Z,10.80
2022-11-29T02:13:07.105Z,11.50
2022-11-29T02:14:07.114Z,11.20
2022-11-29T02:15:07.179Z,11.30
2022-11-29T02:16:07.565Z,10.80
2022-11-29T02:17:07.075Z,10.90
2022-11-29T02:18:07.174Z,11.60
2022-11-29T02:19:07.105Z,11.60
2022-11-29T02:20:07.052Z,11.70
2022-11-29T02:21:07.037Z,11.60
2022-11-29T02:22:07.061Z,11.80
2022-11-29T02:23:06.987Z,11.20
2022-11-29T02:24:06.976Z,11.70
2022-11-29T02:25:06.986Z,11.40
2022-11-29T02:26:06.994Z,11.10
2022-11-29T02:27:06.990Z,11.40
2022-11-29T02:28:06.928Z,11.50
2022-11-29T02:29:06.923Z,11.40
2022-11-29T02:30:06.913Z,12.20
2022-11-29T02:31:06.941Z,11.20
2022-11-29T02:32:06.951Z,11.40
2022-11-29T02:33:06.936Z,11.90
2022-11-29T02:34:06.868Z,11.70
2022-11-29T02:35:06.857Z,11.40
2022-11-29T02:36:06.839Z,10.80
2022-11-29T02:37:11.369Z,10.90
2022-11-29T02:38:06.874Z,11.60
2022-11-29T02:39:06.824Z,11.20
2022-11-29T02:40:06.799Z,11.40
2022-11-29T02:41:07.075Z,12.20
2022-11-29T02:42:06.851Z,11.10
2022-11-29T02:43:06.800Z,12.00
2022-11-29T02:44:06.764Z,11.50
2022-11-29T02:45:06.767Z,11.20
2022-11-29T02:46:06.848Z,11.70
2022-11-29T02:47:06.718Z,11.30
2022-11-29T02:48:06.727Z,12.00
2022-11-29T02:49:06.728Z,11.40
2022-11-29T02:50:06.686Z,10.30
2022-11-29T02:51:06.805Z,10.60
2022-11-29T02:52:06.690Z,12.10
2022-11-29T02:53:06.663Z,11.70
2022-11-29T02:54:06.648Z,11.70
2022-11-29T02:55:06.849Z,11.20
2022-11-29T02:56:06.652Z,11.80
2022-11-29T02:57:06.711Z,11.70
2022-11-29T02:58:06.611Z,11.40
2022-11-29T02:59:06.683Z,11.70
2022-11-29T03:00:06.588Z,11.40
2022-11-29T03:01:06.841Z,11.20
2022-11-29T03:02:06.645Z,11.70
2022-11-29T03:03:06.562Z,11.30
2022-11-29T03:04:06.577Z,11.40
2022-11-29T03:05:06.556Z,11.70
2022-11-29T03:06:06.910Z,11.60
2022-11-29T03:07:06.573Z,11.70
2022-11-29T03:08:06.521Z,11.60
2022-11-29T03:09:06.492Z,12.10
2022-11-29T03:10:06.470Z,11.80
2022-11-29T03:11:06.451Z,11.80
2022-11-29T03:12:06.617Z,12.40
2022-11-29T03:13:06.467Z,12.60
2022-11-29T03:14:06.422Z,11.90
2022-11-29T03:15:06.445Z,12.40
2022-11-29T03:16:06.492Z,12.00
2022-11-29T03:17:06.390Z,11.40
2022-11-29T03:18:06.427Z,12.30
2022-11-29T03:19:06.382Z,12.30
2022-11-29T03:20:06.388Z,12.60
2022-11-29T03:21:06.367Z,11.30
2022-11-29T03:22:06.324Z,11.60
2022-11-29T03:23:06.383Z,11.50
2022-11-29T03:24:06.314Z,13.00
2022-11-29T03:25:06.303Z,12.40
2022-11-29T03:26:06.304Z,11.90
2022-11-29T03:27:06.265Z,13.70
2022-11-29T03:28:06.306Z,12.10
2022-11-29T03:29:06.378Z,12.00
2022-11-29T03:30:06.234Z,12.10
2022-11-29T03:31:06.280Z,12.20
2022-11-29T03:32:06.550Z,12.60
2022-11-29T03:33:06.205Z,13.20
2022-11-29T03:34:06.194Z,12.60
2022-11-29T03:35:06.225Z,11.70
2022-11-29T03:36:06.176Z,12.60
2022-11-29T03:37:06.268Z,12.40
2022-11-29T03:38:06.184Z,13.20
2022-11-29T03:39:06.140Z,12.80
2022-11-29T03:40:06.196Z,12.10
2022-11-29T03:41:06.175Z,13.00
2022-11-29T03:42:06.115Z,13.60
2022-11-29T03:43:06.086Z,13.60
2022-11-29T03:44:06.076Z,13.80
2022-11-29T03:45:06.056Z,13.40
2022-11-29T03:46:06.288Z,13.40
2022-11-29T03:47:06.065Z,14.30
2022-11-29T03:48:06.039Z,14.40
2022-11-29T03:49:06.057Z,14.50
2022-11-29T03:50:06.112Z,13.10
2022-11-29T03:51:06.002Z,13.90
2022-11-29T03:52:06.114Z,14.00
2022-11-29T03:53:05.997Z,14.50
2022-11-29T03:54:05.988Z,14.60
2022-11-29T03:55:05.953Z,14.70
2022-11-29T03:56:05.979Z,13.60
2022-11-29T03:57:06.023Z,13.50
2022-11-29T03:58:06.008Z,13.90
2022-11-29T03:59:05.911Z,13.80
2022-11-29T04:00:05.911Z,13.40
2022-11-29T04:01:06.048Z,13.70
2022-11-29T04:02:05.868Z,12.60
2022-11-29T04:03:06.041Z,13.80
2022-11-29T04:04:05.888Z,13.50
2022-11-29T04:05:05.860Z,13.40
2022-11-29T04:06:05.856Z,12.90
2022-11-29T04:07:05.951Z,13.30
2022-11-29T04:08:05.818Z,12.80
2022-11-29T04:09:05.811Z,12.90
2022-11-29T04:10:05.853Z,14.20
2022-11-29T04:11:05.790Z,13.50
2022-11-29T04:12:05.769Z,13.80
2022-11-29T04:13:05.758Z,13.50
2022-11-29T04:14:05.827Z,13.80
2022-11-29T04:15:05.786Z,13.40
2022-11-29T04:16:05.994Z,14.60
2022-11-29T04:17:05.724Z,13.90
2022-11-29T04:18:05.694Z,13.40
2022-11-29T04:19:05.695Z,13.40
2022-11-29T04:20:05.703Z,14.80
2022-11-29T04:21:05.751Z,13.30
2022-11-29T04:22:05.670Z,12.80
2022-11-29T04:23:05.655Z,13.50
2022-11-29T04:24:05.712Z,13.20
2022-11-29T04:25:05.906Z,13.10
2022-11-29T04:26:05.609Z,13.50
2022-11-29T04:27:05.621Z,13.40
2022-11-29T04:28:05.591Z,13.70
2022-11-29T04:29:05.735Z,13.20
2022-11-29T04:30:05.633Z,13.80
2022-11-29T04:31:05.594Z,13.60
2022-11-29T04:32:05.562Z,13.30
2022-11-29T04:33:05.532Z,13.90
2022-11-29T04:34:05.542Z,12.60
2022-11-29T04:35:05.550Z,12.40
2022-11-29T04:36:05.494Z,12.70
2022-11-29T04:37:05.485Z,13.50
2022-11-29T04:38:05.534Z,13.00
2022-11-29T04:39:05.488Z,12.40
2022-11-29T04:40:05.463Z,11.70
2022-11-29T04:41:05.442Z,12.90
2022-11-29T04:42:05.468Z,13.10
2022-11-29T04:43:05.413Z,12.20
2022-11-29T04:44:05.533Z,11.90
2022-11-29T04:45:05.396Z,12.80
2022-11-29T04:46:05.427Z,13.10
2022-11-29T04:47:05.419Z,12.10
2022-11-29T04:48:05.373Z,11.70
2022-11-29T04:49:05.346Z,12.30
2022-11-29T04:50:05.543Z,12.80
2022-11-29T04:51:05.338Z,13.20
2022-11-29T04:52:05.356Z,13.10
2022-11-29T04:53:05.370Z,12.50
2022-11-29T04:54:05.324Z,12.50
2022-11-29T04:55:05.312Z,12.30
2022-11-29T04:56:05.298Z,13.20
2022-11-29T04:57:05.283Z,12.40
2022-11-29T04:58:05.275Z,13.60
2022-11-29T04:59:05.244Z,13.80
2022-11-29T05:00:05.368Z,12.90
2022-11-29T05:01:05.397Z,12.80
2022-11-29T05:02:05.362Z,13.80
2022-11-29T05:03:05.277Z,12.60
2022-11-29T05:04:05.185Z,12.70
2022-11-29T05:05:05.219Z,13.40
2022-11-29T05:06:05.273Z,12.70
2022-11-29T05:07:05.189Z,13.00
2022-11-29T05:08:05.152Z,13.10
2022-11-29T05:09:05.127Z,13.10
2022-11-29T05:10:05.116Z,13.20
2022-11-29T05:11:05.097Z,12.80
2022-11-29T05:12:05.135Z,14.00
2022-11-29T05:13:05.097Z,12.60
2022-11-29T05:14:05.067Z,12.80
2022-11-29T05:15:05.058Z,13.40
2022-11-29T05:16:05.395Z,13.80
2022-11-29T05:17:05.077Z,13.80
2022-11-29T05:18:05.250Z,12.90
2022-11-29T05:19:05.098Z,14.60
2022-11-29T05:20:05.025Z,12.80
2022-11-29T05:21:05.030Z,14.30
2022-11-29T05:22:04.991Z,13.70
2022-11-29T05:23:04.998Z,13.50
2022-11-29T05:24:04.982Z,14.80
2022-11-29T05:25:04.964Z,13.40
2022-11-29T05:26:05.134Z,12.90
2022-11-29T05:27:04.939Z,13.80
2022-11-29T05:28:09.875Z,13.40
2022-11-29T05:29:05.942Z,13.90
2022-11-29T05:30:04.920Z,14.50
2022-11-29T05:31:04.958Z,14.60
2022-11-29T05:32:04.880Z,13.20
2022-11-29T05:33:05.060Z,13.80
2022-11-29T05:34:04.907Z,13.80
2022-11-29T05:35:04.860Z,13.70
2022-11-29T05:36:04.830Z,13.30
2022-11-29T05:37:04.829Z,13.50
2022-11-29T05:38:04.840Z,13.30
2022-11-29T05:39:04.800Z,13.60
2022-11-29T05:40:04.830Z,13.50
2022-11-29T05:41:04.851Z,13.60
2022-11-29T05:42:04.752Z,13.20
2022-11-29T05:43:04.761Z,13.70
2022-11-29T05:44:04.731Z,13.10
2022-11-29T05:45:05.150Z,13.80
2022-11-29T05:46:04.876Z,12.80
2022-11-29T05:47:04.974Z,12.50
2022-11-29T05:48:04.792Z,12.80
2022-11-29T05:49:04.774Z,12.70
2022-11-29T05:50:04.748Z,12.60
2022-11-29T05:51:04.763Z,13.40
2022-11-29T05:52:04.704Z,13.10
2022-11-29T05:53:04.831Z,13.20
2022-11-29T05:54:04.945Z,12.70
2022-11-29T05:55:04.921Z,13.60
2022-11-29T05:56:04.882Z,14.00
2022-11-29T05:57:04.775Z,13.80
2022-11-29T05:58:04.816Z,13.00
2022-11-29T05:59:05.212Z,13.40
2022-11-29T06:00:04.717Z,12.90
2022-11-29T06:01:04.811Z,13.10
2022-11-29T06:02:04.801Z,12.80
2022-11-29T06:03:04.901Z,12.50
2022-11-29T06:04:06.241Z,12.00
2022-11-29T06:05:04.948Z,13.50
2022-11-29T06:06:05.537Z,12.70
2022-11-29T06:07:04.911Z,12.50
2022-11-29T06:08:07.081Z,12.80
2022-11-29T06:09:06.874Z,13.90
2022-11-29T06:10:05.500Z,13.20
2022-11-29T06:11:05.682Z,13.00
2022-11-29T06:12:04.650Z,12.60
2022-11-29T06:13:07.499Z,12.20
2022-11-29T06:14:05.140Z,12.80
2022-11-29T06:15:06.278Z,12.30
2022-11-29T06:16:05.393Z,12.60
2022-11-29T06:17:04.937Z,13.20
2022-11-29T06:18:05.437Z,12.00
2022-11-29T06:19:05.096Z,12.40
2022-11-29T06:20:07.315Z,11.50
2022-11-29T06:21:07.201Z,13.60
2022-11-29T06:22:05.368Z,12.20
2022-11-29T06:23:06.674Z,12.60
2022-11-29T06:24:05.543Z,11.80
2022-11-29T06:25:06.231Z,11.50
2022-11-29T06:26:04.898Z,12.50
2022-11-29T06:27:05.969Z,11.70
2022-11-29T06:28:05.066Z,12.40
2022-11-29T06:29:05.527Z,11.50
2022-11-29T06:30:05.344Z,12.10
2022-11-29T06:31:04.840Z,12.20
2022-11-29T06:32:06.005Z,11.40
2022-11-29T06:33:04.576Z,12.10
2022-11-29T06:34:06.257Z,11.50
2022-11-29T06:35:04.792Z,11.60
2022-11-29T06:36:05.961Z,12.20
2022-11-29T06:37:05.224Z,10.60
2022-11-29T06:38:04.699Z,10.40
2022-11-29T06:39:05.774Z,10.60
2022-11-29T06:40:05.423Z,9.60
2022-11-29T06:41:09.349Z,9.60
2022-11-29T06:42:04.395Z,9.60
2022-11-29T06:43:04.810Z,9.80
2022-11-29T06:44:05.930Z,9.70
2022-11-29T06:45:05.208Z,10.20
2022-11-29T06:46:05.518Z,9.60
2022-11-29T06:47:05.719Z,9.00
2022-11-29T06:48:05.479Z,10.00
2022-11-29T06:49:07.316Z,9.80
2022-11-29T06:50:07.293Z,9.20
2022-11-29T06:51:05.477Z,9.90
2022-11-29T06:52:05.897Z,9.00
2022-11-29T06:53:06.048Z,9.60
2022-11-29T06:54:04.263Z,9.10
2022-11-29T06:55:04.314Z,9.10
2022-11-29T06:56:04.550Z,8.80
2022-11-29T06:57:04.327Z,9.60
2022-11-29T06:58:04.619Z,9.60
2022-11-29T06:59:04.085Z,9.50
2022-11-29T07:00:04.512Z,9.40
2022-11-29T07:01:04.268Z,9.30
2022-11-29T07:02:05.787Z,9.90
2022-11-29T07:03:04.100Z,10.70
2022-11-29T07:04:04.496Z,10.20
2022-11-29T07:05:04.089Z,10.30
2022-11-29T07:06:04.162Z,11.70
2022-11-29T07:07:04.074Z,10.90
2022-11-29T07:08:04.263Z,10.60
2022-11-29T07:09:04.003Z,10.90
2022-11-29T07:10:03.961Z,11.50
2022-11-29T07:11:06.539Z,11.00
2022-11-29T07:12:05.186Z,12.20
2022-11-29T07:13:05.033Z,12.30
2022-11-29T07:14:04.414Z,12.60
2022-11-29T07:15:04.940Z,11.50
2022-11-29T07:16:05.049Z,11.10
2022-11-29T07:17:04.768Z,11.20
2022-11-29T07:18:04.566Z,11.80
2022-11-29T07:19:04.090Z,11.90
2022-11-29T07:20:05.352Z,11.40
2022-11-29T07:21:05.927Z,12.10
2022-11-29T07:22:07.750Z,11.50
2022-11-29T07:23:05.996Z,11.40
2022-11-29T07:24:06.705Z,11.30
2022-11-29T07:25:05.912Z,11.90
2022-11-29T07:26:06.171Z,12.00
2022-11-29T07:27:05.243Z,12.40
2022-11-29T07:28:06.560Z,11.90
2022-11-29T07:29:05.805Z,11.60
2022-11-29T07:30:05.644Z,11.50
2022-11-29T07:31:04.429Z,12.40
2022-11-29T07:32:04.510Z,13.00
2022-11-29T07:33:05.105Z,11.90
2022-11-29T07:34:04.975Z,13.80
2022-11-29T07:35:05.542Z,12.80
2022-11-29T07:36:05.291Z,13.60
2022-11-29T07:37:04.067Z,13.70
2022-11-29T07:38:05.803Z,13.10
2022-11-29T07:39:05.191Z,14.00
2022-11-29T07:40:04.688Z,14.10
2022-11-29T07:41:05.375Z,14.70
2022-11-29T07:42:04.300Z,14.00
2022-11-29T07:43:05.188Z,14.40
2022-11-29T07:44:04.717Z,15.10
2022-11-29T07:45:03.780Z,14.80
2022-11-29T07:46:04.557Z,14.80
2022-11-29T07:47:03.985Z,15.20
2022-11-29T07:48:03.909Z,14.40
2022-11-29T07:49:04.500Z,15.40
2022-11-29T07:50:03.991Z,14.10
2022-11-29T07:51:04.954Z,14.20
2022-11-29T07:52:04.317Z,14.80
2022-11-29T07:53:04.638Z,13.50
2022-11-29T07:54:03.570Z,13.80
2022-11-29T07:55:03.548Z,14.40
2022-11-29T07:56:03.807Z,13.40
2022-11-29T07:57:05.280Z,13.60
2022-11-29T07:58:03.413Z,12.60
2022-11-29T07:59:03.519Z,13.20
2022-11-29T08:00:05.360Z,13.90
2022-11-29T08:01:04.450Z,13.10
2022-11-29T08:02:10.183Z,13.00
2022-11-29T08:03:06.672Z,13.00
2022-11-29T08:04:04.149Z,13.10
2022-11-29T08:05:03.892Z,13.60
2022-11-29T08:06:05.420Z,12.80
2022-11-29T08:07:04.266Z,12.50
2022-11-29T08:08:04.265Z,12.50
2022-11-29T08:09:05.145Z,12.90
2022-11-29T08:10:04.601Z,13.50
2022-11-29T08:11:04.172Z,12.90
2022-11-29T08:12:04.505Z,12.80
2022-11-29T08:13:03.381Z,13.10
2022-11-29T08:14:04.029Z,12.80
2022-11-29T08:15:04.021Z,12.70
2022-11-29T08:16:04.936Z,13.80
2022-11-29T08:17:03.178Z,13.10
2022-11-29T08:18:03.853Z,13.50
2022-11-29T08:19:03.191Z,12.10
2022-11-29T08:20:04.444Z,12.90
2022-11-29T08:21:04.236Z,13.20
2022-11-29T08:22:04.215Z,12.00
2022-11-29T08:23:03.729Z,12.80
2022-11-29T08:24:05.122Z,13.00
2022-11-29T08:25:04.084Z,13.30
2022-11-29T08:26:04.392Z,12.40
2022-11-29T08:27:04.998Z,13.20
2022-11-29T08:28:04.126Z,12.70
2022-11-29T08:29:05.310Z,12.30
2022-11-29T08:30:05.234Z,12.80
2022-11-29T08:31:03.569Z,12.90
2022-11-29T08:32:03.389Z,12.10
2022-11-29T08:33:04.450Z,12.40
2022-11-29T08:34:03.414Z,12.60
2022-11-29T08:35:04.747Z,12.70
2022-11-29T08:36:04.424Z,12.60
2022-11-29T08:37:03.205Z,12.50
2022-11-29T08:38:04.548Z,11.70
2022-11-29T08:39:09.397Z,12.70
2022-11-29T08:40:05.207Z,12.00
2022-11-29T08:41:02.974Z,12.20
2022-11-29T08:42:03.705Z,12.30
2022-11-29T08:43:04.239Z,12.00
2022-11-29T08:44:03.009Z,12.50
2022-11-29T08:45:03.651Z,12.50
2022-11-29T08:46:02.886Z,12.60
2022-11-29T08:47:05.383Z,12.80
2022-11-29T08:48:03.393Z,12.60
2022-11-29T08:49:02.882Z,12.90
2022-11-29T08:50:04.401Z,12.90
2022-11-29T08:51:03.967Z,12.90
2022-11-29T08:52:02.890Z,13.50
2022-11-29T08:53:03.372Z,13.90
2022-11-29T08:54:03.290Z,13.90
2022-11-29T08:55:04.433Z,13.40
2022-11-29T08:56:17.071Z,13.90
2022-11-29T08:57:38.503Z,13.50
2022-11-29T08:58:06.870Z,13.70
2022-11-29T08:59:05.119Z,14.30
2022-11-29T09:00:04.437Z,13.10
2022-11-29T09:01:03.499Z,13.20
2022-11-29T09:02:03.552Z,14.00
2022-11-29T09:03:05.662Z,14.70
2022-11-29T09:04:03.147Z,13.40
2022-11-29T09:05:05.009Z,12.20
2022-11-29T09:06:07.686Z,14.00
2022-11-29T09:07:04.795Z,12.90
2022-11-29T09:08:04.085Z,13.10
2022-11-29T09:09:06.493Z,12.60
2022-11-29T09:10:03.448Z,13.50
2022-11-29T09:11:02.712Z,12.90
2022-11-29T09:12:03.341Z,12.80
2022-11-29T09:13:05.014Z,12.40
2022-11-29T09:14:03.313Z,13.10
2022-11-29T09:15:05.139Z,12.70
2022-11-29T09:16:02.949Z,13.10
2022-11-29T09:17:03.619Z,12.80
2022-11-29T09:18:03.319Z,12.60
2022-11-29T09:19:03.592Z,12.70
2022-11-29T09:20:04.933Z,12.70
2022-11-29T09:21:02.884Z,12.20
2022-11-29T09:22:03.389Z,12.00
2022-11-29T09:23:03.660Z,12.00
2022-11-29T09:24:04.087Z,12.30
2022-11-29T09:25:03.844Z,12.30
2022-11-29T09:26:03.081Z,12.40
2022-11-29T09:27:05.534Z,12.80
2022-11-29T09:28:03.714Z,13.00
2022-11-29T09:29:02.939Z,12.60
2022-11-29T09:30:02.423Z,12.10
2022-11-29T09:31:04.311Z,12.60
2022-11-29T09:32:03.126Z,12.70
2022-11-29T09:33:04.851Z,12.70
2022-11-29T09:34:06.595Z,12.50
2022-11-29T09:35:02.752Z,14.20
2022-11-29T09:36:03.878Z,12.90
2022-11-29T09:37:02.417Z,13.10
2022-11-29T09:38:03.793Z,12.30
2022-11-29T09:39:03.398Z,12.80
2022-11-29T09:40:03.906Z,12.80
2022-11-29T09:41:04.039Z,12.90
2022-11-29T09:42:03.513Z,12.30
2022-11-29T09:43:03.938Z,11.90
2022-11-29T09:44:05.169Z,12.90
2022-11-29T09:45:02.815Z,13.60
2022-11-29T09:46:04.134Z,12.90
2022-11-29T09:47:04.023Z,13.50
2022-11-29T09:48:04.474Z,13.40
2022-11-29T09:49:03.571Z,13.30
2022-11-29T09:50:03.444Z,12.50
2022-11-29T09:51:03.785Z,12.10
2022-11-29T09:52:04.284Z,12.60
2022-11-29T09:53:02.773Z,12.30
2022-11-29T09:54:02.806Z,11.60
2022-11-29T09:55:02.830Z,12.60
2022-11-29T09:56:02.878Z,11.60
2022-11-29T09:57:04.900Z,11.50
2022-11-29T09:58:05.267Z,12.00
2022-11-29T09:59:03.172Z,11.70
2022-11-29T10:00:02.778Z,12.50
2022-11-29T10:01:02.807Z,11.30
2022-11-29T10:02:02.534Z,11.70
2022-11-29T10:03:02.018Z,11.90
2022-11-29T10:04:02.895Z,11.60
2022-11-29T10:05:02.456Z,12.50
2022-11-29T10:06:03.723Z,12.40
2022-11-29T10:07:02.324Z,11.80
2022-11-29T10:08:02.658Z,11.00
2022-11-29T10:09:02.644Z,11.60
2022-11-29T10:10:03.288Z,12.50
2022-11-29T10:11:02.337Z,11.00
2022-11-29T10:12:03.189Z,10.70
2022-11-29T10:13:02.638Z,11.20
2022-11-29T10:14:03.497Z,11.00
2022-11-29T10:15:02.675Z,11.00
2022-11-29T10:16:02.301Z,10.50
2022-11-29T10:17:02.368Z,10.70
2022-11-29T10:18:02.254Z,10.70
2022-11-29T10:19:01.792Z,11.40
2022-11-29T10:20:01.770Z,11.90
2022-11-29T10:21:02.166Z,11.70
2022-11-29T10:22:01.975Z,12.40
2022-11-29T10:23:02.947Z,12.00
2022-11-29T10:24:01.957Z,11.90
2022-11-29T10:25:02.390Z,11.00
2022-11-29T10:26:03.200Z,11.70
2022-11-29T10:27:02.420Z,12.40
2022-11-29T10:28:02.192Z,12.40
2022-11-29T10:29:02.134Z,12.30
2022-11-29T10:30:03.056Z,11.60
2022-11-29T10:31:02.069Z,12.30
2022-11-29T10:32:07.175Z,11.70
2022-11-29T10:33:04.233Z,13.30
2022-11-29T10:34:02.681Z,12.50
2022-11-29T10:35:03.063Z,12.50
2022-11-29T10:36:03.467Z,12.20
2022-11-29T10:37:01.951Z,13.00
2022-11-29T10:38:29.628Z,12.10
2022-11-29T10:39:03.335Z,12.00
2022-11-29T10:40:02.281Z,12.60
2022-11-29T10:41:01.664Z,12.50
2022-11-29T10:42:02.331Z,12.70
2022-11-29T10:43:02.376Z,13.30
2022-11-29T10:44:01.778Z,13.00
2022-11-29T10:45:02.293Z,11.40
2022-11-29T10:46:02.800Z,12.80
2022-11-29T10:47:06.589Z,12.30
2022-11-29T10:48:02.934Z,11.50
2022-11-29T10:49:02.021Z,11.00
2022-11-29T10:50:01.800Z,12.30
2022-11-29T10:51:01.766Z,12.70
2022-11-29T10:52:01.407Z,12.00
2022-11-29T10:53:01.743Z,12.60
2022-11-29T10:54:01.473Z,12.50
2022-11-29T10:55:02.121Z,12.80
2022-11-29T10:56:01.614Z,12.70
2022-11-29T10:57:01.540Z,13.00
2022-11-29T10:58:01.325Z,12.40
2022-11-29T10:59:01.477Z,12.10
2022-11-29T11:00:01.792Z,12.00
2022-11-29T11:01:01.988Z,12.00
2022-11-29T11:02:01.327Z,12.60
2022-11-29T11:03:02.333Z,11.70
2022-11-29T11:04:01.726Z,11.40
2022-11-29T11:05:01.649Z,12.10
2022-11-29T11:06:02.566Z,12.90
2022-11-29T11:07:01.629Z,12.20
2022-11-29T11:08:01.648Z,12.20
2022-11-29T11:09:03.150Z,12.00
2022-11-29T11:10:01.528Z,12.60
2022-11-29T11:11:02.388Z,12.60
2022-11-29T11:12:02.225Z,12.60
2022-11-29T11:13:03.594Z,12.80
2022-11-29T11:14:04.863Z,15.10
2022-11-29T11:15:02.238Z,12.90
2022-11-29T11:16:04.734Z,11.70
2022-11-29T11:17:02.745Z,13.10
2022-11-29T11:18:04.028Z,12.30
2022-11-29T11:19:03.159Z,12.40
2022-11-29T11:20:02.252Z,12.40
2022-11-29T11:21:03.751Z,12.30
2022-11-29T11:22:02.525Z,13.40
2022-11-29T11:23:01.517Z,12.40
2022-11-29T11:24:05.808Z,12.30
2022-11-29T11:25:06.359Z,12.90
2022-11-29T11:26:05.161Z,12.90
2022-11-29T11:27:04.610Z,13.20
2022-11-29T11:28:02.203Z,12.90
2022-11-29T11:29:03.781Z,12.00
2022-11-29T11:30:02.139Z,11.90
2022-11-29T11:31:02.646Z,11.90
2022-11-29T11:32:04.404Z,12.50
2022-11-29T11:33:05.606Z,12.50
2022-11-29T11:34:04.710Z,12.50
2022-11-29T11:35:02.859Z,12.70
2022-11-29T11:36:02.171Z,13.10
2022-11-29T11:37:02.418Z,12.20
2022-11-29T11:38:03.341Z,12.00
2022-11-29T11:39:05.115Z,13.50
2022-11-29T11:40:04.118Z,13.20
2022-11-29T11:41:03.549Z,11.90
2022-11-29T11:42:03.985Z,12.70
2022-11-29T11:43:04.209Z,12.90
2022-11-29T11:44:10.423Z,12.30
2022-11-29T11:45:03.798Z,12.20
2022-11-29T11:46:06.793Z,14.00
2022-11-29T11:47:03.970Z,14.50
2022-11-29T11:48:03.598Z,13.20
2022-11-29T11:49:02.445Z,12.10
2022-11-29T11:50:05.657Z,12.30
2022-11-29T11:51:02.005Z,13.00
2022-11-29T11:52:01.293Z,12.40
2022-11-29T11:53:02.506Z,11.80
2022-11-29T11:54:03.014Z,12.40
2022-11-29T11:55:03.265Z,12.80
2022-11-29T11:56:02.906Z,12.00
2022-11-29T11:57:03.374Z,12.10
2022-11-29T11:58:09.303Z,12.60
2022-11-29T11:59:02.666Z,13.10
2022-11-29T12:00:06.788Z,11.00
2022-11-29T12:01:05.102Z,12.70
2022-11-29T12:02:04.121Z,13.40
2022-11-29T12:03:04.522Z,12.80
2022-11-29T12:04:04.654Z,12.70
2022-11-29T12:05:04.436Z,12.40
2022-11-29T12:06:02.524Z,12.80
2022-11-29T12:07:01.125Z,12.10
2022-11-29T12:08:07.677Z,12.30
2022-11-29T12:09:04.842Z,12.00
2022-11-29T12:10:01.876Z,12.70
2022-11-29T12:11:07.040Z,12.60
2022-11-29T12:12:03.283Z,11.80
2022-11-29T12:13:02.858Z,12.60
2022-11-29T12:14:03.955Z,11.00
2022-11-29T12:15:03.656Z,12.40
2022-11-29T12:16:04.282Z,12.50
2022-11-29T12:17:02.536Z,12.90
2022-11-29T12:18:04.869Z,11.50
2022-11-29T12:19:02.035Z,11.40
2022-11-29T12:20:03.447Z,11.60
2022-11-29T12:21:02.294Z,11.60
2022-11-29T12:22:05.575Z,11.20
2022-11-29T12:23:02.326Z,12.30
2022-11-29T12:24:02.953Z,11.60
2022-11-29T12:25:02.415Z,12.60
2022-11-29T12:26:03.288Z,11.60
2022-11-29T12:27:04.598Z,10.70
2022-11-29T12:28:03.269Z,12.00
2022-11-29T12:29:04.432Z,10.70
2022-11-29T12:30:03.996Z,12.00
2022-11-29T12:31:02.791Z,11.30
2022-11-29T12:32:03.057Z,11.00
2022-11-29T12:33:01.178Z,10.60
2022-11-29T12:34:02.805Z,11.30
2022-11-29T12:35:01.931Z,11.50
2022-11-29T12:36:03.767Z,10.70
2022-11-29T12:37:03.248Z,11.10
2022-11-29T12:38:01.542Z,12.00
2022-11-29T12:39:01.564Z,11.20
2022-11-29T12:40:02.723Z,11.20
2022-11-29T12:41:04.964Z,11.40
2022-11-29T12:42:06.087Z,12.70
2022-11-29T12:43:02.160Z,10.80
2022-11-29T12:44:02.728Z,12.20
2022-11-29T12:45:02.350Z,12.70
2022-11-29T12:46:04.545Z,11.70
2022-11-29T12:47:20.620Z,13.70
2022-11-29T12:48:05.258Z,13.60
2022-11-29T12:48:59.963Z,12.20
2022-11-29T12:50:02.414Z,12.50
2022-11-29T12:51:04.044Z,13.00
2022-11-29T12:52:03.847Z,12.60
2022-11-29T12:53:06.725Z,12.70